Time;durP1;ratioP1;P1;durP2;ratioP2;P2;SDS_P1;SDS_P2;PMS_P1;PMS_P2;Temp;Humidity;BMP_temperature;BMP_pressure;BME280_temperature;BME280_humidity;BME280_pressure;Samples;Min_cycle;Max_cycle;Signal;HPM_P1;HPM_P2
2023/03/15 00:01:07;;;;;;;5.53;1.25;;;4.70;74.80;;;;;;5072944;28;20039;-78
2023/03/15 00:03:36;;;;;;;7.15;1.70;;;4.70;74.80;;;;;;5072634;28;20395;-78
2023/03/15 00:06:02;;;;;;;9.60;1.45;;;4.80;74.90;;;;;;5075197;28;20042;-78
2023/03/15 00:08:32;;;;;;;13.35;2.00;;;4.70;74.90;;;;;;5072771;28;20079;-77
2023/03/15 00:10:58;;;;;;;9.05;1.55;;;4.80;75.10;;;;;;5071308;28;20048;-78
2023/03/15 00:13:23;;;;;;;8.48;1.83;;;4.80;75.10;;;;;;5086653;28;20092;-78
2023/03/15 00:15:51;;;;;;;4.13;1.20;;;4.80;75.20;;;;;;5072417;28;20032;-78
2023/03/15 00:18:18;;;;;;;7.22;1.58;;;4.80;75.40;;;;;;5070290;28;20070;-78
2023/03/15 00:20:44;;;;;;;7.45;1.10;;;4.80;75.50;;;;;;5088593;28;20127;-77
2023/03/15 00:23:10;;;;;;;4.80;1.05;;;4.80;75.50;;;;;;5119842;27;20130;-78
2023/03/15 00:25:36;;;;;;;5.57;1.60;;;4.80;75.70;;;;;;5088523;28;20032;-78
2023/03/15 00:28:02;;;;;;;9.70;1.70;;;4.80;75.70;;;;;;5088887;28;20467;-78
2023/03/15 00:30:27;;;;;;;7.07;1.73;;;4.80;75.70;;;;;;5088532;28;20086;-78
2023/03/15 00:32:53;;;;;;;7.32;1.10;;;4.80;75.70;;;;;;5089175;28;20120;-78
2023/03/15 00:35:20;;;;;;;3.42;0.80;;;4.90;75.70;;;;;;5071347;28;20126;-78
2023/03/15 00:37:45;;;;;;;7.10;1.38;;;4.90;75.50;;;;;;5120018;28;20479;-78
2023/03/15 00:40:12;;;;;;;6.00;1.00;;;4.90;75.50;;;;;;5088205;28;20116;-77
2023/03/15 00:42:38;;;;;;;5.65;0.90;;;4.90;75.40;;;;;;5089998;28;20039;-78
2023/03/15 00:45:05;;;;;;;7.65;0.90;;;4.90;75.30;;;;;;5095452;28;20039;-78
2023/03/15 00:47:30;;;;;;;4.75;0.90;;;4.90;75.20;;;;;;5079028;28;20040;-78
2023/03/15 00:49:56;;;;;;;6.05;0.93;;;4.90;75.10;;;;;;5075112;28;20036;-78
2023/03/15 00:52:22;;;;;;;4.30;1.58;;;4.90;75.00;;;;;;5058457;28;20520;-78
2023/03/15 00:54:54;;;;;;;5.57;0.80;;;4.90;74.80;;;;;;5092022;28;20040;-78
2023/03/15 00:57:21;;;;;;;4.00;1.38;;;4.90;74.70;;;;;;5091897;28;20036;-78
2023/03/15 00:59:47;;;;;;;3.72;0.70;;;5.40;74.90;;;;;;5102132;28;20471;-78
2023/03/15 01:02:13;;;;;;;2.47;0.70;;;5.00;74.60;;;;;;5098778;28;20035;-78
2023/03/15 01:04:38;;;;;;;3.08;0.90;;;4.90;74.50;;;;;;5099006;28;20051;-78
2023/03/15 01:07:05;;;;;;;3.65;0.90;;;4.80;74.40;;;;;;5115961;28;20121;-78
2023/03/15 01:09:31;;;;;;;5.25;1.05;;;4.90;74.30;;;;;;5091858;28;20502;-77
2023/03/15 01:11:58;;;;;;;4.22;0.80;;;4.90;74.30;;;;;;5078566;28;20499;-77
2023/03/15 01:14:23;;;;;;;3.53;0.57;;;4.80;74.10;;;;;;5061714;28;20071;-77
2023/03/15 01:16:50;;;;;;;4.32;0.70;;;4.80;74.10;;;;;;5078754;28;20078;-77
2023/03/15 01:19:15;;;;;;;4.03;0.93;;;4.90;74.00;;;;;;5078637;28;20035;-77
2023/03/15 01:21:41;;;;;;;4.47;0.73;;;4.80;73.80;;;;;;5095085;28;20404;-77
2023/03/15 01:24:12;;;;;;;5.40;0.90;;;4.80;73.60;;;;;;5095335;28;20079;-77
2023/03/15 01:26:37;;;;;;;4.20;1.00;;;4.80;73.50;;;;;;5078106;28;20035;-77
2023/03/15 01:29:03;;;;;;;2.85;0.80;;;4.80;73.40;;;;;;5059878;28;20067;-77
2023/03/15 01:31:29;;;;;;;6.18;1.15;;;4.80;73.20;;;;;;5094868;28;20043;-77
2023/03/15 01:33:56;;;;;;;6.05;1.17;;;4.70;73.00;;;;;;5080830;28;20502;-77
2023/03/15 01:36:23;;;;;;;5.57;1.67;;;4.70;72.90;;;;;;5101310;28;20047;-77
2023/03/15 01:38:49;;;;;;;8.35;2.28;;;4.70;73.00;;;;;;5083618;28;20039;-78
2023/03/15 01:41:16;;;;;;;8.80;2.05;;;4.80;73.20;;;;;;5069946;28;20040;-79
2023/03/15 01:43:46;;;;;;;8.57;2.05;;;4.60;73.20;;;;;;5104780;28;20048;-78
2023/03/15 01:46:33;;;;;;;6.82;1.80;;;4.60;73.20;;;;;;5103463;28;20096;-78
2023/03/15 01:49:01;;;;;;;6.45;1.67;;;4.50;72.90;;;;;;5115882;27;20042;-78
2023/03/15 01:51:44;;;;;;;3.72;0.95;;;4.50;73.00;;;;;;5098475;28;20458;-78
2023/03/15 01:54:16;;;;;;;5.80;1.00;;;4.50;73.00;;;;;;5081686;28;20052;-78
2023/03/15 01:56:51;;;;;;;4.75;1.13;;;4.40;73.10;;;;;;5098570;28;20057;-78
2023/03/15 01:59:22;;;;;;;;;;;4.40;73.20;;;;;;5098908;28;20039;-78
2023/03/15 02:01:49;;;;;;;6.82;1.10;;;4.40;73.10;;;;;;5081405;28;19970;-78
2023/03/15 02:04:23;;;;;;;5.85;1.02;;;4.50;73.20;;;;;;5081283;28;20039;-78
2023/03/15 02:06:57;;;;;;;5.95;0.93;;;4.40;73.10;;;;;;5081432;28;20045;-78
2023/03/15 02:09:40;;;;;;;5.80;2.83;;;4.40;73.00;;;;;;5082011;28;20047;-78
2023/03/15 02:12:07;;;;;;;7.25;3.05;;;4.30;73.00;;;;;;5098160;28;20050;-78
2023/03/15 02:14:34;;;;;;;12.30;4.25;;;4.30;73.00;;;;;;5081450;28;20097;-78
2023/03/15 02:17:00;;;;;;;16.00;5.28;;;4.30;73.10;;;;;;5064302;28;20040;-78
2023/03/15 02:20:04;;;;;;;13.13;3.85;;;4.30;72.90;;;;;;5098760;28;20089;-78
2023/03/15 02:22:44;;;;;;;12.93;4.90;;;4.20;72.70;;;;;;5076258;28;20048;-78
2023/03/15 02:25:33;;;;;;;13.35;5.70;;;4.20;72.80;;;;;;5097732;28;20130;-78
2023/03/15 02:27:59;;;;;;;10.55;3.30;;;4.40;72.90;;;;;;5097410;28;20064;-78
2023/03/15 02:30:25;;;;;;;13.27;4.47;;;4.10;72.70;;;;;;5080925;28;20441;-78
2023/03/15 02:32:51;;;;;;;40.70;18.08;;;4.10;72.80;;;;;;5060563;28;20046;-78
2023/03/15 02:35:26;;;;;;;27.77;13.70;;;4.10;72.90;;;;;;5060568;28;20043;-78
2023/03/15 02:37:52;;;;;;;22.73;10.25;;;4.00;72.90;;;;;;5074726;28;20118;-78
2023/03/15 02:40:20;;;;;;;10.65;4.38;;;4.00;73.00;;;;;;5097830;28;20139;-78
2023/03/15 02:42:50;;;;;;;8.07;3.20;;;4.00;73.00;;;;;;5097491;28;20035;-78
2023/03/15 02:45:16;;;;;;;8.95;3.15;;;4.00;73.10;;;;;;5080087;28;20046;-78
2023/03/15 02:47:44;;;;;;;10.10;3.35;;;3.90;73.10;;;;;;5097045;28;20039;-78
2023/03/15 02:50:10;;;;;;;8.05;3.03;;;4.10;73.20;;;;;;5096838;28;20050;-78
2023/03/15 02:52:36;;;;;;;4.45;1.23;;;3.90;73.00;;;;;;5114125;28;20031;-78
2023/03/15 02:55:02;;;;;;;6.53;1.73;;;3.90;72.80;;;;;;5083911;28;20550;-78
2023/03/15 02:57:28;;;;;;;8.82;3.40;;;3.90;72.70;;;;;;5076821;28;20078;-78
2023/03/15 02:59:54;;;;;;;6.78;2.13;;;3.90;72.50;;;;;;5060530;28;20032;-78
2023/03/15 03:02:20;;;;;;;10.30;2.95;;;3.90;72.50;;;;;;5080903;28;20083;-78
2023/03/15 03:04:46;;;;;;;5.25;2.10;;;3.90;72.60;;;;;;5080068;28;20501;-78
2023/03/15 03:07:12;;;;;;;7.05;2.30;;;3.80;72.50;;;;;;5079841;28;20039;-78
2023/03/15 03:09:38;;;;;;;7.05;2.58;;;3.90;72.70;;;;;;5063168;28;20130;-78
2023/03/15 03:12:04;;;;;;;8.10;3.00;;;4.00;72.90;;;;;;5096762;28;20162;-78
2023/03/15 03:14:30;;;;;;;7.10;2.00;;;3.80;73.00;;;;;;5063800;28;20053;-78
2023/03/15 03:16:55;;;;;;;6.45;2.20;;;3.90;73.20;;;;;;5079727;28;20042;-78
2023/03/15 03:19:24;;;;;;;5.53;1.90;;;3.80;73.20;;;;;;5080124;28;20035;-78
2023/03/15 03:21:53;;;;;;;5.13;1.77;;;4.00;73.50;;;;;;5096611;28;20089;-78
2023/03/15 03:24:19;;;;;;;4.38;1.58;;;3.90;73.40;;;;;;5079753;28;20093;-78
2023/03/15 03:26:45;;;;;;;7.43;2.25;;;3.90;73.40;;;;;;5079424;28;20036;-78
2023/03/15 03:29:15;;;;;;;6.80;1.73;;;3.90;73.50;;;;;;5104809;28;20059;-78
2023/03/15 03:31:41;;;;;;;6.80;1.60;;;3.90;73.50;;;;;;5059429;28;20044;-78
2023/03/15 03:34:08;;;;;;;4.78;1.40;;;3.90;73.40;;;;;;5076414;28;20372;-79
2023/03/15 03:36:34;;;;;;;5.03;1.25;;;3.90;73.40;;;;;;5076132;28;20040;-78
2023/03/15 03:39:00;;;;;;;4.55;1.30;;;3.90;73.40;;;;;;5093081;28;20047;-78
2023/03/15 03:41:26;;;;;;;4.20;0.90;;;3.90;73.40;;;;;;5092750;28;20491;-78
2023/03/15 03:43:52;;;;;;;5.28;1.20;;;4.00;73.40;;;;;;5075865;28;20043;-78
2023/03/15 03:46:17;;;;;;;5.45;1.15;;;3.80;73.10;;;;;;5092823;28;20039;-78
2023/03/15 03:48:43;;;;;;;4.68;1.10;;;3.80;73.20;;;;;;5079317;28;20403;-78
2023/03/15 03:51:10;;;;;;;4.30;1.20;;;3.80;73.20;;;;;;5096011;28;20077;-78
2023/03/15 03:53:36;;;;;;;5.80;1.10;;;4.00;73.40;;;;;;5096427;28;20046;-78
2023/03/15 03:56:04;;;;;;;6.00;1.42;;;3.80;73.30;;;;;;5094676;28;20043;-78
2023/03/15 03:58:30;;;;;;;5.05;1.20;;;3.80;73.40;;;;;;5078781;28;20036;-78
2023/03/15 04:00:56;;;;;;;5.23;1.03;;;3.70;73.30;;;;;;5062323;28;20039;-78
2023/03/15 04:03:25;;;;;;;4.13;0.88;;;3.80;73.50;;;;;;5058890;28;20044;-78
2023/03/15 04:05:55;;;;;;;5.07;1.33;;;3.70;73.40;;;;;;5078192;28;20044;-78
2023/03/15 04:08:23;;;;;;;5.82;1.08;;;3.80;73.50;;;;;;5079538;28;20036;-77
2023/03/15 04:10:50;;;;;;;3.80;1.13;;;3.80;73.60;;;;;;5095608;28;20071;-77
2023/03/15 04:13:16;;;;;;;5.27;1.07;;;3.70;73.50;;;;;;5045903;28;20039;-77
2023/03/15 04:15:41;;;;;;;5.20;1.17;;;3.70;73.60;;;;;;5061943;28;20035;-77
2023/03/15 04:18:07;;;;;;;4.87;1.20;;;3.70;73.70;;;;;;5079259;28;20063;-77
2023/03/15 04:20:33;;;;;;;5.30;0.90;;;3.70;73.80;;;;;;5112976;28;20044;-77
2023/03/15 04:22:59;;;;;;;3.80;1.00;;;3.70;73.80;;;;;;5095988;28;20130;-77
2023/03/15 04:25:25;;;;;;;3.90;1.40;;;3.70;73.90;;;;;;5093559;28;20044;-77
2023/03/15 04:28:01;;;;;;;2.80;0.90;;;3.70;74.00;;;;;;5094974;28;20564;-77
2023/03/15 04:30:29;;;;;;;6.33;1.10;;;3.70;74.00;;;;;;5078009;28;20483;-77
2023/03/15 04:33:02;;;;;;;4.25;0.98;;;3.80;74.10;;;;;;5078924;28;20036;-77
2023/03/15 04:35:30;;;;;;;5.60;0.82;;;3.70;74.10;;;;;;5079846;28;20050;-77
2023/03/15 04:37:56;;;;;;;4.67;0.90;;;3.70;74.10;;;;;;5095386;28;20478;-77
2023/03/15 04:40:28;;;;;;;6.28;1.13;;;3.70;74.10;;;;;;5095900;28;20383;-77
2023/03/15 04:42:54;;;;;;;8.43;0.93;;;3.70;74.10;;;;;;5097011;28;20046;-77
2023/03/15 04:45:24;;;;;;;4.93;0.97;;;3.70;74.00;;;;;;5078696;28;20035;-77
2023/03/15 04:47:51;;;;;;;7.18;1.35;;;3.70;74.00;;;;;;5062565;28;20501;-77
2023/03/15 04:50:17;;;;;;;9.50;1.23;;;3.70;73.90;;;;;;5095439;28;20044;-77
2023/03/15 04:52:43;;;;;;;4.33;1.10;;;3.70;73.80;;;;;;5095561;28;20040;-77
2023/03/15 04:55:09;;;;;;;5.10;0.90;;;3.60;73.50;;;;;;5078343;28;20061;-78
2023/03/15 04:57:35;;;;;;;5.63;0.90;;;3.60;73.60;;;;;;5095131;28;20035;-78
2023/03/15 05:00:03;;;;;;;4.40;1.00;;;3.60;73.70;;;;;;5095624;28;20042;-77
2023/03/15 05:02:28;;;;;;;7.15;1.48;;;3.50;73.70;;;;;;5095585;28;20036;-77
2023/03/15 05:04:54;;;;;;;5.87;1.27;;;3.80;73.80;;;;;;5078878;28;20058;-77
2023/03/15 05:07:20;;;;;;;7.45;1.33;;;3.50;73.80;;;;;;5095985;28;20046;-77
2023/03/15 05:09:46;;;;;;;8.63;1.73;;;3.40;73.90;;;;;;5099293;28;20475;-77
2023/03/15 05:12:12;;;;;;;5.03;1.20;;;3.40;74.00;;;;;;5099018;28;20047;-77
2023/03/15 05:14:38;;;;;;;6.43;1.10;;;3.30;74.20;;;;;;5065882;28;20364;-77
2023/03/15 05:17:04;;;;;;;3.58;0.82;;;3.30;74.40;;;;;;5065751;28;20035;-77
2023/03/15 05:19:33;;;;;;;6.07;1.57;;;3.30;74.50;;;;;;5065471;28;20032;-77
2023/03/15 05:22:02;;;;;;;5.80;0.87;;;3.30;74.70;;;;;;5065795;28;20073;-77
2023/03/15 05:24:29;;;;;;;3.27;0.80;;;3.20;74.80;;;;;;5048872;28;20040;-77
2023/03/15 05:26:55;;;;;;;3.93;0.60;;;3.20;75.00;;;;;;5098985;28;20035;-77
2023/03/15 05:29:21;;;;;;;4.17;0.77;;;3.30;75.20;;;;;;5098573;28;20092;-77
2023/03/15 05:31:48;;;;;;;3.90;0.90;;;3.10;75.30;;;;;;5098490;28;20078;-78
2023/03/15 05:34:14;;;;;;;5.00;1.37;;;3.50;75.70;;;;;;5098676;28;20505;-78
2023/03/15 05:36:43;;;;;;;3.73;0.80;;;3.00;75.60;;;;;;5081719;28;20040;-78
2023/03/15 05:39:10;;;;;;;2.23;0.60;;;3.10;75.90;;;;;;5098857;28;20427;-78
2023/03/15 05:41:36;;;;;;;5.53;0.88;;;3.00;76.00;;;;;;5062028;28;20130;-78
2023/03/15 05:44:01;;;;;;;3.30;0.70;;;3.00;76.30;;;;;;5078215;28;20126;-78
2023/03/15 05:46:27;;;;;;;4.17;0.73;;;3.00;76.30;;;;;;5062063;28;20040;-78
2023/03/15 05:48:53;;;;;;;5.03;0.97;;;3.00;76.50;;;;;;5078092;28;20575;-77
2023/03/15 05:51:19;;;;;;;3.60;0.70;;;3.10;76.70;;;;;;5061169;28;20036;-78
2023/03/15 05:53:45;;;;;;;5.00;0.83;;;3.20;76.80;;;;;;5044957;28;20365;-78
2023/03/15 05:56:11;;;;;;;3.73;0.73;;;3.10;76.80;;;;;;5061450;28;20073;-78
2023/03/15 05:58:36;;;;;;;5.73;0.70;;;3.10;76.90;;;;;;5077864;28;20064;-77
2023/03/15 06:01:03;;;;;;;6.53;1.00;;;3.10;77.30;;;;;;5087040;28;20126;-77
2023/03/15 06:03:30;;;;;;;6.57;1.00;;;3.10;76.80;;;;;;5097622;28;20035;-78
2023/03/15 06:05:59;;;;;;;3.40;0.47;;;3.10;76.80;;;;;;5081247;28;20095;-79
2023/03/15 06:08:26;;;;;;;4.47;1.37;;;3.10;76.90;;;;;;5095316;28;20071;-78
2023/03/15 06:10:52;;;;;;;2.13;0.50;;;3.10;76.90;;;;;;5113554;28;20047;-78
2023/03/15 06:13:17;;;;;;;3.33;0.50;;;3.20;76.90;;;;;;5097944;28;20411;-79
2023/03/15 06:15:46;;;;;;;4.77;0.83;;;3.20;76.90;;;;;;5077802;28;20090;-79
2023/03/15 06:18:12;;;;;;;2.63;0.60;;;3.20;76.90;;;;;;5082139;28;20039;-79
2023/03/15 06:20:39;;;;;;;6.75;1.02;;;3.70;77.10;;;;;;5071154;28;20095;-79
2023/03/15 06:23:04;;;;;;;3.13;0.80;;;3.40;76.90;;;;;;5087957;28;20054;-79
2023/03/15 06:25:30;;;;;;;4.20;0.68;;;3.40;76.80;;;;;;5085887;28;20043;-78
2023/03/15 06:27:56;;;;;;;2.60;0.73;;;3.30;77.10;;;;;;5064400;28;20054;-78
2023/03/15 06:30:21;;;;;;;4.93;0.63;;;3.30;76.50;;;;;;5097967;28;20047;-79
2023/03/15 06:32:47;;;;;;;4.37;0.77;;;3.40;76.60;;;;;;5064463;28;20031;-78
2023/03/15 06:35:13;;;;;;;4.27;0.80;;;3.40;76.50;;;;;;5081017;28;20032;-78
2023/03/15 06:37:40;;;;;;;3.30;0.80;;;3.40;76.50;;;;;;5080567;28;20461;-78
2023/03/15 06:40:07;;;;;;;2.90;0.63;;;3.40;76.30;;;;;;5080656;28;20114;-79
2023/03/15 06:42:33;;;;;;;3.85;0.68;;;3.50;76.40;;;;;;5060527;28;20418;-78
2023/03/15 06:45:00;;;;;;;2.47;0.50;;;3.50;76.30;;;;;;5080110;28;20024;-78
2023/03/15 06:47:25;;;;;;;2.90;0.85;;;3.50;76.20;;;;;;5080642;28;20036;-78
2023/03/15 06:49:51;;;;;;;5.57;0.80;;;3.50;76.10;;;;;;5080446;28;20046;-78
2023/03/15 06:52:17;;;;;;;4.32;0.93;;;3.50;76.00;;;;;;5077052;28;20048;-78
2023/03/15 06:54:43;;;;;;;3.53;0.77;;;3.50;76.00;;;;;;5083540;28;20490;-78
2023/03/15 06:57:09;;;;;;;3.53;0.77;;;3.60;76.10;;;;;;5064606;27;20043;-78
2023/03/15 06:59:35;;;;;;;1.58;0.52;;;3.60;76.00;;;;;;5084533;27;20035;-78
2023/03/15 07:02:00;;;;;;;4.93;1.27;;;3.90;76.10;;;;;;5092114;27;20126;-78
2023/03/15 07:04:26;;;;;;;4.07;1.05;;;3.60;75.90;;;;;;5080103;28;20075;-78
2023/03/15 07:06:52;;;;;;;3.97;0.93;;;3.60;75.90;;;;;;5097070;28;20043;-78
2023/03/15 07:09:17;;;;;;;4.80;0.98;;;3.70;76.00;;;;;;5080314;28;20394;-78
2023/03/15 07:11:43;;;;;;;3.83;0.95;;;3.70;76.00;;;;;;5079742;28;20071;-78
2023/03/15 07:14:09;;;;;;;4.75;1.00;;;3.70;75.90;;;;;;5096613;28;20043;-78
2023/03/15 07:16:34;;;;;;;2.05;0.50;;;4.00;76.00;;;;;;5097082;28;20067;-78
2023/03/15 07:19:01;;;;;;;5.25;1.13;;;3.70;75.80;;;;;;5079856;28;20499;-78
2023/03/15 07:21:26;;;;;;;2.28;0.55;;;3.80;75.80;;;;;;5096774;28;20039;-78
2023/03/15 07:23:53;;;;;;;3.25;0.80;;;3.80;75.80;;;;;;5096606;28;20065;-78
2023/03/15 07:26:19;;;;;;;3.58;0.70;;;3.80;75.80;;;;;;5079825;28;20387;-78
2023/03/15 07:28:45;;;;;;;3.78;0.80;;;3.90;75.80;;;;;;5062885;28;20056;-78
2023/03/15 07:31:11;;;;;;;4.38;0.80;;;3.90;75.80;;;;;;5096269;28;20403;-78
2023/03/15 07:33:38;;;;;;;3.40;0.63;;;4.40;76.20;;;;;;5096400;28;20035;-78
2023/03/15 07:36:05;;;;;;;2.75;1.13;;;4.00;76.20;;;;;;5096659;28;20395;-78
2023/03/15 07:38:31;;;;;;;4.05;0.93;;;4.10;76.30;;;;;;5079055;28;20122;-78
2023/03/15 07:41:00;;;;;;;3.85;0.90;;;4.10;76.20;;;;;;5063279;28;20131;-78
2023/03/15 07:43:25;;;;;;;5.75;1.05;;;4.30;76.20;;;;;;5079618;28;20072;-78
2023/03/15 07:45:51;;;;;;;4.25;0.90;;;4.40;76.20;;;;;;5062630;28;20552;-78
2023/03/15 07:48:17;;;;;;;4.00;0.85;;;4.50;76.00;;;;;;5079272;28;20043;-79
2023/03/15 07:50:44;;;;;;;5.10;0.70;;;4.60;75.80;;;;;;5079327;28;20036;-79
2023/03/15 07:53:10;;;;;;;3.72;1.02;;;4.80;75.60;;;;;;5078806;28;20043;-79
2023/03/15 07:55:36;;;;;;;5.78;1.10;;;4.80;75.50;;;;;;5095859;28;20035;-76
2023/03/15 07:58:02;;;;;;;4.30;1.00;;;4.90;75.40;;;;;;5130006;27;20031;-77
2023/03/15 08:00:28;;;;;;;6.88;1.30;;;4.90;75.10;;;;;;5079100;28;20047;-77
2023/03/15 08:02:53;;;;;;;3.33;0.80;;;5.10;74.90;;;;;;5095988;28;20452;-78
2023/03/15 08:05:19;;;;;;;7.40;0.88;;;5.40;74.90;;;;;;5062915;28;20126;-77
2023/03/15 08:07:46;;;;;;;9.00;1.45;;;5.30;74.60;;;;;;5079025;28;20092;-78
2023/03/15 08:10:13;;;;;;;3.70;0.88;;;5.40;74.40;;;;;;5078920;28;20036;-77
2023/03/15 08:12:41;;;;;;;7.50;1.48;;;5.50;74.10;;;;;;5078857;28;20035;-77
2023/03/15 08:15:15;;;;;;;4.70;0.95;;;5.70;74.10;;;;;;5079612;28;20126;-77
2023/03/15 08:17:41;;;;;;;6.05;0.93;;;5.80;74.00;;;;;;5095675;28;20040;-78
2023/03/15 08:20:13;;;;;;;7.90;1.50;;;6.00;73.50;;;;;;5088184;28;20040;-78
2023/03/15 08:22:46;;;;;;;3.45;0.60;;;6.10;73.10;;;;;;5058876;28;20123;-77
2023/03/15 08:25:14;;;;;;;3.03;0.68;;;6.30;72.30;;;;;;5075457;28;20123;-77
2023/03/15 08:27:40;;;;;;;5.03;1.15;;;6.40;70.60;;;;;;5075234;28;20089;-78
2023/03/15 08:30:11;;;;;;;7.22;1.40;;;6.50;70.00;;;;;;5075357;28;20036;-78
2023/03/15 08:32:38;;;;;;;5.78;0.80;;;6.60;70.10;;;;;;5075860;28;20043;-78
2023/03/15 08:35:05;;;;;;;4.85;0.80;;;6.70;70.60;;;;;;5078966;28;20058;-78
2023/03/15 08:37:31;;;;;;;6.03;1.15;;;6.90;71.20;;;;;;5095569;28;20483;-78
2023/03/15 08:40:01;;;;;;;6.88;1.23;;;7.10;71.40;;;;;;5045670;28;20050;-78
2023/03/15 08:42:27;;;;;;;2.67;0.60;;;7.30;71.00;;;;;;5079195;28;20475;-78
2023/03/15 08:44:53;;;;;;;4.95;1.27;;;7.60;70.50;;;;;;5099854;28;20050;-78
2023/03/15 08:47:18;;;;;;;3.42;0.90;;;8.00;70.10;;;;;;5049258;28;20546;-78
2023/03/15 08:49:44;;;;;;;4.28;0.80;;;8.30;69.00;;;;;;5066111;28;20031;-78
2023/03/15 08:52:10;;;;;;;4.60;0.70;;;8.60;67.70;;;;;;5099593;28;20044;-78
2023/03/15 08:54:35;;;;;;;3.88;1.08;;;8.90;66.80;;;;;;5066335;28;20039;-78
2023/03/15 08:57:01;;;;;;;5.95;1.10;;;9.10;66.30;;;;;;5099279;28;20038;-79
2023/03/15 08:59:27;;;;;;;4.13;1.38;;;9.40;65.30;;;;;;5099168;28;20046;-77
2023/03/15 09:01:52;;;;;;;4.60;1.05;;;9.60;64.50;;;;;;5082450;28;20040;-78
2023/03/15 09:04:18;;;;;;;5.00;1.15;;;9.80;63.80;;;;;;5099277;28;20156;-78
2023/03/15 09:06:44;;;;;;;6.22;1.25;;;10.10;62.90;;;;;;5065521;28;20050;-78
2023/03/15 09:09:10;;;;;;;4.45;1.33;;;10.30;61.90;;;;;;5082634;28;20046;-78
2023/03/15 09:11:35;;;;;;;5.07;1.20;;;10.50;61.20;;;;;;5065568;28;20544;-78
2023/03/15 09:14:01;;;;;;;5.60;1.40;;;10.70;59.80;;;;;;5065364;28;20039;-77
2023/03/15 09:16:27;;;;;;;5.45;0.90;;;10.80;59.20;;;;;;5082362;28;20080;-78
2023/03/15 09:18:53;;;;;;;4.30;1.08;;;10.90;58.30;;;;;;5082196;28;20390;-78
2023/03/15 09:21:19;;;;;;;7.03;1.00;;;11.00;57.40;;;;;;5065298;28;20501;-78
2023/03/15 09:23:44;;;;;;;4.97;1.25;;;11.10;56.80;;;;;;5115887;28;20061;-78
2023/03/15 09:26:10;;;;;;;5.00;1.10;;;11.10;56.70;;;;;;5065137;28;20047;-77
2023/03/15 09:28:35;;;;;;;5.82;1.55;;;11.20;56.70;;;;;;5115704;28;20058;-77
2023/03/15 09:31:05;;;;;;;4.00;1.08;;;11.30;56.60;;;;;;5132933;27;20096;-77
2023/03/15 09:33:32;;;;;;;3.53;1.30;;;11.40;56.20;;;;;;5098909;28;20042;-77
2023/03/15 09:35:58;;;;;;;7.18;1.45;;;11.40;56.00;;;;;;5082506;28;20502;-78
2023/03/15 09:38:23;;;;;;;4.72;1.00;;;11.50;55.90;;;;;;5098688;28;20137;-78
2023/03/15 09:40:50;;;;;;;6.15;1.40;;;11.60;55.90;;;;;;5132798;27;20126;-78
2023/03/15 09:43:41;;;;;;;5.43;1.20;;;11.60;55.00;;;;;;5081342;28;20031;-77
2023/03/15 09:46:29;;;;;;;6.22;1.60;;;11.80;55.00;;;;;;5078191;28;20054;-77
2023/03/15 09:49:24;;;;;;;4.97;1.45;;;11.80;53.20;;;;;;5066899;28;20459;-77
2023/03/15 09:51:58;;;;;;;3.72;1.25;;;11.80;53.60;;;;;;5098475;28;20043;-78
2023/03/15 09:54:31;;;;;;;4.72;1.33;;;11.80;54.10;;;;;;5097929;28;20032;-77
2023/03/15 09:57:08;;;;;;;4.95;1.33;;;11.90;54.40;;;;;;5077850;28;20036;-77
2023/03/15 09:59:38;;;;;;;5.25;1.13;;;11.90;53.20;;;;;;5086429;28;20555;-77
2023/03/15 10:02:19;;;;;;;5.50;1.52;;;11.90;52.40;;;;;;5098519;28;20044;-77
2023/03/15 10:04:48;;;;;;;4.78;1.65;;;11.80;52.50;;;;;;5081402;28;20441;-78
2023/03/15 10:07:15;;;;;;;4.30;0.95;;;11.90;52.90;;;;;;5097861;28;20083;-77
2023/03/15 10:09:42;;;;;;;4.65;1.05;;;11.90;53.20;;;;;;5081226;28;20043;-78
2023/03/15 10:12:13;;;;;;;4.82;1.08;;;11.90;52.60;;;;;;5097918;28;20432;-77
2023/03/15 10:15:04;;;;;;;4.80;1.27;;;11.90;51.30;;;;;;5097846;28;20064;-78
2023/03/15 10:17:38;;;;;;;4.47;1.20;;;11.90;50.90;;;;;;5097504;28;20085;-78
2023/03/15 10:20:17;;;;;;;8.57;1.42;;;12.00;50.20;;;;;;5097734;28;20071;-78
2023/03/15 10:22:46;;;;;;;5.03;1.40;;;11.90;48.60;;;;;;5080929;28;20122;-78
2023/03/15 10:25:31;;;;;;;6.05;1.13;;;11.90;48.60;;;;;;5080803;28;20071;-77
2023/03/15 10:28:06;;;;;;;7.63;1.23;;;11.80;47.90;;;;;;5080563;28;20055;-77
2023/03/15 10:30:36;;;;;;;5.68;1.08;;;11.70;49.20;;;;;;5125541;27;20066;-78
2023/03/15 10:33:19;;;;;;;3.38;0.85;;;11.60;49.90;;;;;;5094019;28;20040;-77
2023/03/15 10:35:44;;;;;;;5.68;1.05;;;11.60;50.70;;;;;;5077749;28;20047;-78
2023/03/15 10:38:19;;;;;;;7.22;0.98;;;11.60;50.20;;;;;;5096742;28;20495;-78
2023/03/15 10:40:57;;;;;;;9.23;1.55;;;11.60;50.50;;;;;;5097598;28;20051;-78
2023/03/15 10:43:29;;;;;;;6.00;1.00;;;11.60;49.90;;;;;;5097153;28;20089;-78
2023/03/15 10:46:12;;;;;;;5.70;1.30;;;11.70;50.10;;;;;;5080314;28;20564;-78
2023/03/15 10:48:51;;;;;;;3.50;0.90;;;11.70;50.80;;;;;;5096918;28;20509;-77
2023/03/15 10:51:27;;;;;;;6.72;1.20;;;11.70;51.20;;;;;;5097171;28;20035;-77
2023/03/15 10:54:11;;;;;;;3.95;0.93;;;11.70;50.80;;;;;;5097044;28;20047;-77
2023/03/15 10:56:46;;;;;;;4.57;1.10;;;11.70;50.90;;;;;;5079585;28;20039;-77
2023/03/15 10:59:26;;;;;;;5.40;1.35;;;11.70;48.00;;;;;;5079991;28;20082;-77
2023/03/15 11:02:06;;;;;;;6.13;1.17;;;11.60;47.50;;;;;;5096059;28;20075;-77
2023/03/15 11:04:32;;;;;;;4.90;1.52;;;11.50;47.10;;;;;;5096378;28;20043;-78
2023/03/15 11:06:57;;;;;;;5.15;1.23;;;11.50;47.40;;;;;;5078852;28;20044;-77
2023/03/15 11:09:36;;;;;;;6.18;1.40;;;11.40;47.80;;;;;;5130937;27;20051;-77
2023/03/15 11:12:05;;;;;;;7.25;1.50;;;11.30;48.30;;;;;;5096766;28;20043;-77
2023/03/15 11:14:44;;;;;;;3.65;1.15;;;11.20;47.70;;;;;;5096699;28;20043;-77
2023/03/15 11:17:27;;;;;;;7.05;1.38;;;11.20;48.70;;;;;;5096641;28;20047;-77
2023/03/15 11:19:58;;;;;;;3.73;1.50;;;11.10;49.20;;;;;;5079818;28;20035;-77
2023/03/15 11:22:24;;;;;;;6.15;1.40;;;11.20;48.80;;;;;;5096475;28;20043;-77
2023/03/15 11:24:53;;;;;;;6.93;1.63;;;11.10;48.80;;;;;;5094266;28;20096;-78
2023/03/15 11:27:21;;;;;;;6.60;1.23;;;11.10;49.00;;;;;;5096453;28;20040;-77
2023/03/15 11:29:57;;;;;;;4.78;1.20;;;11.20;50.30;;;;;;5079379;28;20064;-77
2023/03/15 11:32:29;;;;;;;7.35;1.65;;;11.10;48.70;;;;;;5079390;28;20114;-77
2023/03/15 11:35:18;;;;;;;5.55;1.67;;;11.20;47.60;;;;;;5096217;28;20046;-77
2023/03/15 11:37:52;;;;;;;6.72;1.27;;;11.20;47.60;;;;;;5079100;28;20036;-77
2023/03/15 11:40:28;;;;;;;5.28;1.67;;;11.10;47.30;;;;;;5096338;28;20139;-77
2023/03/15 11:43:14;;;;;;;3.60;0.80;;;11.10;46.30;;;;;;5096087;28;20044;-77
2023/03/15 11:45:56;;;;;;;4.80;1.38;;;11.10;45.10;;;;;;5096460;28;20035;-77
2023/03/15 11:48:39;;;;;;;6.78;1.85;;;11.00;47.50;;;;;;5096230;28;20044;-77
2023/03/15 11:51:07;;;;;;;6.28;1.20;;;11.10;48.70;;;;;;5095685;28;20111;-77
2023/03/15 11:53:40;;;;;;;5.20;1.40;;;11.10;49.80;;;;;;5096027;28;20039;-78
2023/03/15 11:56:24;;;;;;;5.47;1.40;;;11.10;50.80;;;;;;5095955;28;20044;-77
2023/03/15 11:59:40;;;;;;;4.65;1.25;;;11.20;50.90;;;;;;5095951;28;20042;-78
2023/03/15 12:02:09;;;;;;;5.18;1.30;;;11.20;50.30;;;;;;5072849;28;20379;-78
2023/03/15 12:04:37;;;;;;;4.68;1.20;;;11.30;50.90;;;;;;5123146;27;20047;-80
2023/03/15 12:07:23;;;;;;;3.83;1.08;;;11.30;49.20;;;;;;5095867;28;20518;-79
2023/03/15 12:09:56;;;;;;;6.97;1.48;;;11.30;47.30;;;;;;5078611;28;20043;-79
2023/03/15 12:12:25;;;;;;;4.47;1.10;;;11.30;47.00;;;;;;5095772;28;20058;-80
2023/03/15 12:15:33;;;;;;;8.98;1.40;;;11.20;46.20;;;;;;5118324;27;20112;-80
2023/03/15 12:18:05;;;;;;;6.28;1.23;;;11.20;45.60;;;;;;5044016;28;20039;-80
2023/03/15 12:20:42;;;;;;;4.10;1.15;;;11.20;46.50;;;;;;5084590;28;20095;-81
2023/03/15 12:23:20;;;;;;;3.83;1.20;;;11.20;46.50;;;;;;5112510;28;20075;-80
2023/03/15 12:26:07;;;;;;;7.32;2.05;;;11.20;45.20;;;;;;5083223;28;20117;-81
2023/03/15 12:28:40;;;;;;;7.22;1.40;;;11.20;45.30;;;;;;5095636;28;20094;-80
2023/03/15 12:31:12;;;;;;;6.40;1.27;;;11.20;45.10;;;;;;5078781;28;20043;-81
2023/03/15 12:33:53;;;;;;;4.18;1.13;;;11.20;46.40;;;;;;5095376;28;20073;-80
2023/03/15 12:36:38;;;;;;;5.22;1.20;;;11.20;46.70;;;;;;5078650;28;20032;-80
2023/03/15 12:39:16;;;;;;;4.47;0.90;;;11.20;46.50;;;;;;5078791;28;20039;-80
2023/03/15 12:41:46;;;;;;;4.38;1.20;;;11.20;45.80;;;;;;5093495;28;20071;-80
2023/03/15 12:44:17;;;;;;;4.88;1.45;;;11.20;45.90;;;;;;5095213;28;20074;-80
2023/03/15 12:46:43;;;;;;;5.03;1.25;;;11.20;45.50;;;;;;5058366;28;20578;-79
2023/03/15 12:49:12;;;;;;;6.13;1.20;;;11.20;45.10;;;;;;5081315;28;20046;-80
2023/03/15 12:52:03;;;;;;;4.72;1.40;;;11.20;45.40;;;;;;5085561;28;20047;-81
2023/03/15 12:54:42;;;;;;;5.75;1.63;;;11.20;44.80;;;;;;5085810;28;20036;-81
2023/03/15 12:57:12;;;;;;;5.18;1.20;;;11.20;43.80;;;;;;5098681;28;20039;-80
2023/03/15 13:00:05;;;;;;;5.22;1.55;;;11.20;43.80;;;;;;5085394;28;20074;-80
2023/03/15 13:02:37;;;;;;;7.95;1.48;;;11.20;44.30;;;;;;5085938;28;20353;-80
2023/03/15 13:05:33;;;;;;;4.50;1.30;;;11.20;45.00;;;;;;5085420;28;20035;-81